Time;durP1;ratioP1;P1;durP2;ratioP2;P2;SDS_P1;SDS_P2;PMS_P1;PMS_P2;Temp;Humidity;BMP_temperature;BMP_pressure;BME280_temperature;BME280_humidity;BME280_pressure;Samples;Min_cycle;Max_cycle;Signal;HPM_P1;HPM_P2
2022/04/09 00:02:02;;;;;;;28.67;7.93;;;;;;;8.20;94.75;90911.06;5046675;28;20401;-90
2022/04/09 00:05:11;;;;;;;23.60;7.70;;;;;;;8.27;94.32;90932.94;5043719;28;20083;-90
2022/04/09 00:12:12;;;;;;;19.70;7.30;;;;;;;7.89;94.71;90871.06;4991759;28;20046;-90
2022/04/09 00:15:15;;;;;;;18.90;7.57;;;;;;;8.22;94.69;90927.13;4980202;28;20078;-90
2022/04/09 00:18:46;;;;;;;;;;;;;;;;;;;;;
2022/04/09 00:21:46;;;;;;;25.05;8.18;;;;;;;8.01;94.68;90917.34;4964038;28;20057;-90
2022/04/09 00:28:43;;;;;;;33.15;10.23;;;;;;;8.06;98.23;90922.41;4971582;28;20098;-89
2022/04/09 00:35:21;;;;;;;28.05;11.43;;;;;;;8.11;99.60;90924.84;4967153;28;20077;-90
2022/04/09 00:41:51;;;;;;;28.45;10.63;;;;;;;7.91;97.68;90912.44;4976564;28;20409;-89
2022/04/09 00:48:46;;;;;;;24.95;11.25;;;;;;;7.86;97.39;90925.63;5031363;28;20084;-91
2022/04/09 00:51:12;;;;;;;28.50;11.32;;;;;;;7.81;97.74;90929.13;5003594;28;20532;-91
2022/04/09 00:53:42;;;;;;;28.15;12.40;;;;;;;7.73;97.41;90932.53;4986790;28;20030;-91
2022/04/09 00:56:13;;;;;;;27.55;13.25;;;;;;;7.57;98.02;90897.59;5003287;28;20128;-90
2022/04/09 00:59:02;;;;;;;38.65;13.50;;;;;;;7.67;98.58;90918.09;5019927;28;20037;-90
2022/04/09 01:02:03;;;;;;;31.00;13.02;;;;;;;7.67;98.49;90931.88;5019498;28;20075;-90
2022/04/09 01:08:27;;;;;;;35.47;12.77;;;;;;;7.47;98.59;90909.06;5036936;28;20036;-90
2022/04/09 01:14:47;;;;;;;31.40;12.45;;;;;;;7.57;98.42;90940.00;5036889;28;20390;-90
2022/04/09 01:21:51;;;;;;;27.30;9.93;;;;;;;7.38;98.25;90916.09;5032784;28;20417;-90
2022/04/09 01:24:28;;;;;;;27.95;10.77;;;;;;;7.46;98.27;90943.97;5015395;28;20116;-90
2022/04/09 01:26:54;;;;;;;34.67;11.07;;;;;;;7.26;98.28;90914.84;5018621;28;20045;-89
2022/04/09 01:29:27;;;;;;;33.50;10.95;;;;;;;7.51;98.59;90943.84;5003952;28;20069;-91
2022/04/09 01:32:09;;;;;;;29.50;10.63;;;;;;;7.37;98.82;90922.38;5019013;28;20095;-90
2022/04/09 01:35:26;;;;;;;32.88;10.52;;;;;;;7.50;98.80;90929.28;5010637;28;20128;-89
2022/04/09 01:37:53;;;;;;;41.90;11.07;;;;;;;7.43;99.50;90902.91;5020016;28;20065;-90
2022/04/09 01:40:24;;;;;;;28.40;9.68;;;;;;;7.47;98.86;90909.06;5003244;28;20525;-91
2022/04/09 01:42:50;;;;;;;28.63;10.02;;;;;;;7.59;98.33;90934.47;5002675;28;20042;-90
2022/04/09 01:45:27;;;;;;;33.70;10.65;;;;;;;7.15;98.70;90861.53;4986436;28;20490;-90
2022/04/09 01:51:37;;;;;;;28.48;10.25;;;;;;;7.32;99.66;90891.25;5033398;28;20061;-90
2022/04/09 01:58:31;;;;;;;33.08;10.68;;;;;;;7.11;98.37;90867.66;5036598;28;20091;-90
2022/04/09 02:05:24;;;;;;;34.75;10.27;;;;;;;7.22;98.14;90889.72;5036660;28;20128;-90
2022/04/09 02:12:09;;;;;;;32.05;10.57;;;;;;;7.35;98.55;90912.25;5018717;28;20041;-89
2022/04/09 02:21:50;;;;;;;31.50;10.07;;;;;;;7.36;97.99;90907.81;5056036;28;20155;-90
2022/04/09 02:28:19;;;;;;;25.30;9.25;;;;;;;7.26;97.81;90888.81;5056205;28;20577;-90
2022/04/09 02:34:44;;;;;;;29.65;9.07;;;;;;;7.34;97.16;90912.56;5055398;28;20400;-90
2022/04/09 02:41:09;;;;;;;;;;;;;;;7.30;96.86;90902.75;5056136;28;20048;-91
2022/04/09 02:47:49;;;;;;;42.03;9.65;;;;;;;7.11;95.79;90896.28;5055789;28;20482;-90
2022/04/09 02:54:16;;;;;;;35.13;9.70;;;;;;;7.08;97.13;90882.06;5055388;28;20132;-89
2022/04/09 03:00:22;;;;;;;39.33;10.20;;;;;;;7.00;97.29;90872.38;5036682;28;20124;-90
2022/04/09 03:02:49;;;;;;;42.15;9.48;;;;;;;7.07;97.03;90876.09;5037407;28;20478;-90
2022/04/09 03:05:33;;;;;;;33.20;9.50;;;;;;;7.01;97.33;90866.13;5039882;28;20429;-90
2022/04/09 03:08:02;;;;;;;36.08;9.30;;;;;;;6.74;97.28;90839.28;5021145;28;20049;-90
2022/04/09 03:14:22;;;;;;;31.52;8.52;;;;;;;6.87;96.88;90867.00;5047530;28;20047;-89
2022/04/09 03:20:42;;;;;;;;;;;;;;;6.94;96.27;90881.41;5050441;28;20162;-91
2022/04/09 03:30:30;;;;;;;14.52;2.38;;;;;;;6.64;82.63;90861.13;5054942;28;20063;-90
2022/04/09 03:32:58;;;;;;;11.63;2.85;;;;;;;6.64;73.03;90853.34;5020592;28;20129;-90
2022/04/09 03:35:29;;;;;;;13.60;3.05;;;;;;;6.73;75.51;90871.53;5020887;28;20040;-90
2022/04/09 03:38:42;;;;;;;11.00;2.70;;;;;;;6.74;74.83;90873.09;5021601;28;20041;-90
2022/04/09 03:52:44;;;;;;;4.53;1.73;;;;;;;7.93;55.67;90861.56;5054118;28;20389;-90
2022/04/09 03:59:37;;;;;;;19.23;6.80;;;;;;;7.68;85.67;90883.94;5054077;28;20052;-90
2022/04/09 04:06:18;;;;;;;21.35;6.40;;;;;;;7.68;84.95;90898.81;5054658;28;20457;-91
2022/04/09 04:08:44;;;;;;;20.33;5.78;;;;;;;7.77;82.21;90880.56;5004634;28;20116;-90
2022/04/09 04:11:17;;;;;;;11.35;3.60;;;;;;;8.08;67.98;90854.31;5020148;28;20248;-90
2022/04/09 04:14:04;;;;;;;19.50;6.13;;;;;;;7.96;79.86;90835.97;5037172;28;20043;-90
2022/04/09 04:16:54;;;;;;;21.23;6.07;;;;;;;7.77;78.53;90831.06;5035996;28;20029;-91
2022/04/09 04:22:41;;;;;;;;;;;;;;;;;;;;;
2022/04/09 04:25:25;;;;;;;6.68;2.78;;;;;;;8.45;57.45;90837.25;5053691;28;20504;-89
2022/04/09 04:28:13;;;;;;;4.90;1.30;;;;;;;8.39;48.43;90843.66;5025405;28;20045;-89
2022/04/09 04:30:50;;;;;;;1.95;1.17;;;;;;;8.27;44.24;90794.78;5035917;28;20036;-89
2022/04/09 04:33:31;;;;;;;6.75;2.22;;;;;;;8.60;56.40;90869.88;5036528;28;20041;-90
2022/04/09 04:36:20;;;;;;;;;;;;;;;;;;;;;
2022/04/09 04:39:08;;;;;;;3.88;1.00;;;;;;;8.51;42.77;90876.94;5031263;28;20106;-89
2022/04/09 04:42:29;;;;;;;;;;;;;;;;;;;;;
2022/04/09 04:48:45;;;;;;;1.55;0.90;;;;;;;9.03;33.45;90857.69;4969577;28;20231;-90
2022/04/09 04:51:10;;;;;;;2.22;0.90;;;;;;;9.07;35.52;90864.56;4969488;28;20059;-90
2022/04/09 04:53:42;;;;;;;1.65;1.00;;;;;;;8.96;36.41;90877.22;4953264;29;20494;-90
2022/04/09 05:00:18;;;;;;;4.70;1.20;;;;;;;8.84;36.55;90882.34;4956961;29;20171;-89
2022/04/09 05:10:22;;;;;;;3.78;1.00;;;;;;;8.65;36.57;90876.75;5047616;28;20052;-90
2022/04/09 05:12:49;;;;;;;1.45;0.80;;;;;;;8.86;35.28;90903.66;5022123;28;20025;-90
2022/04/09 05:18:25;;;;;;;3.13;1.10;;;;;;;8.81;35.24;90906.47;5037833;28;20045;-86
2022/04/09 05:20:51;;;;;;;6.82;1.00;;;;;;;8.89;34.75;90903.06;5032395;28;20061;-86
2022/04/09 05:23:20;;;;;;;0.77;0.68;;;;;;;9.03;34.32;90912.50;5018957;28;20553;-87
2022/04/09 05:25:46;;;;;;;1.80;0.80;;;;;;;9.07;34.69;90900.34;5017533;28;20136;-86
2022/04/09 05:28:12;;;;;;;0.73;0.50;;;;;;;9.16;34.68;90916.72;5015876;28;20112;-86
2022/04/09 05:30:44;;;;;;;3.03;1.00;;;;;;;9.41;32.77;90922.13;5051638;28;20048;-87
2022/04/09 05:33:10;;;;;;;2.22;0.60;;;;;;;9.38;34.56;90929.50;5018416;28;20096;-86
2022/04/09 05:35:40;;;;;;;0.98;0.75;;;;;;;9.48;32.57;90925.00;5019488;28;20037;-86
2022/04/09 05:38:07;;;;;;;4.15;0.80;;;;;;;9.64;32.37;90920.00;5046903;28;20095;-87
2022/04/09 05:40:36;;;;;;;2.10;0.73;;;;;;;9.78;33.71;90933.59;5026372;28;20131;-87
2022/04/09 05:43:09;;;;;;;1.25;0.77;;;;;;;9.68;32.93;90910.44;5054613;28;20045;-86
2022/04/09 05:45:35;;;;;;;3.45;0.90;;;;;;;10.03;36.19;90962.47;5034976;28;20042;-88
2022/04/09 05:48:02;;;;;;;3.35;0.88;;;;;;;10.01;32.70;90934.03;5019259;28;20036;-88
2022/04/09 05:50:42;;;;;;;1.30;0.65;;;;;;;10.10;33.10;90941.81;4990353;28;20029;-87
2022/04/09 05:53:07;;;;;;;2.50;0.85;;;;;;;10.27;32.87;90953.94;5017606;28;20395;-88
2022/04/09 05:55:33;;;;;;;1.52;0.90;;;;;;;10.21;34.13;90938.47;5035223;28;20045;-86
2022/04/09 05:57:59;;;;;;;6.15;0.70;;;;;;;10.49;33.10;90960.72;5012217;28;20382;-87
2022/04/09 06:00:27;;;;;;;1.13;0.70;;;;;;;10.54;37.16;90956.06;5015618;28;20443;-89
2022/04/09 06:03:06;;;;;;;0.85;0.70;;;;;;;10.69;34.55;90964.38;5022557;28;20155;-88
2022/04/09 06:05:36;;;;;;;1.48;0.60;;;;;;;10.79;32.66;90967.38;5017988;28;20041;-89
2022/04/09 06:08:07;;;;;;;1.48;0.80;;;;;;;10.78;30.38;90944.13;5017102;28;20494;-90
2022/04/09 06:10:34;;;;;;;0.95;0.52;;;;;;;10.99;30.80;90976.25;5034525;28;20503;-91
2022/04/09 06:12:59;;;;;;;1.27;0.80;;;;;;;11.42;30.43;90974.97;5033288;28;20036;-89
2022/04/09 06:15:28;;;;;;;4.57;0.90;;;;;;;14.50;26.47;90960.97;4986112;28;20044;-89
2022/04/09 06:18:05;;;;;;;0.85;0.80;;;;;;;18.03;20.84;90956.53;5020854;28;20036;-89
2022/04/09 06:20:31;;;;;;;4.97;1.00;;;;;;;18.22;18.27;90984.66;5047255;28;20053;-90
2022/04/09 06:22:56;;;;;;;1.30;0.95;;;;;;;19.54;16.42;90926.78;4983069;28;20187;-88
2022/04/09 06:25:22;;;;;;;0.60;0.60;;;;;;;20.31;16.99;90984.03;5008496;28;20061;-88
2022/04/09 06:34:42;;;;;;;0.68;0.68;;;;;;;23.02;15.83;90951.44;5016281;28;20042;-89
2022/04/09 06:37:40;;;;;;;;;;;;;;;;;;;;;
2022/04/09 06:40:31;;;;;;;;;;;;;;;;;;;;;
2022/04/09 06:43:31;;;;;;;1.10;0.80;;;;;;;21.07;17.55;90950.00;5036556;28;20032;-89
2022/04/09 06:47:11;;;;;;;;;;;;;;;;;;;;;
2022/04/09 06:50:11;;;;;;;;;;;;;;;;;;;;;
2022/04/09 06:52:53;;;;;;;0.88;0.60;;;;;;;25.43;14.45;90999.13;5031705;28;20056;-88
2022/04/09 06:55:42;;;;;;;0.50;0.50;;;;;;;25.65;14.46;90993.31;5017883;28;20089;-90
2022/04/09 06:58:21;;;;;;;0.55;0.55;;;;;;;26.29;13.75;91010.63;5012395;28;20037;-89
2022/04/09 07:01:02;;;;;;;0.68;0.50;;;;;;;26.79;13.36;91004.09;5031081;28;20045;-88
2022/04/09 07:03:35;;;;;;;0.43;0.43;;;;;;;27.39;12.63;91002.88;5009460;28;20071;-89
2022/04/09 07:06:19;;;;;;;0.40;0.40;;;;;;;27.40;12.17;90974.81;5017396;28;20498;-89
2022/04/09 07:08:44;;;;;;;0.20;0.20;;;;;;;25.52;12.90;90977.88;5020842;28;20491;-90
2022/04/09 07:11:12;;;;;;;0.25;0.20;;;;;;;23.66;14.25;90984.56;5032355;28;20026;-89
2022/04/09 07:13:40;;;;;;;2.63;0.30;;;;;;;20.98;16.09;90983.13;5007879;28;20066;-90
2022/04/09 07:16:11;;;;;;;0.30;0.30;;;;;;;19.79;17.77;90975.72;5012409;28;20129;-89
2022/04/09 07:18:57;;;;;;;;;;;;;;;;;;;;;
2022/04/09 07:21:55;;;;;;;0.45;0.35;;;;;;;17.91;20.47;91029.06;5028310;28;20041;-93
2022/04/09 07:24:44;;;;;;;0.20;0.20;;;;;;;16.90;21.16;91000.13;5023048;28;20038;-90
2022/04/09 07:27:46;;;;;;;1.55;0.47;;;;;;;15.93;22.56;91025.22;5044736;28;20041;-89
2022/04/09 07:30:19;;;;;;;0.20;0.20;;;;;;;14.55;23.67;90992.31;5013025;28;20108;-92
2022/04/09 07:33:09;;;;;;;;;;;;;;;;;;;;;
2022/04/09 07:35:59;;;;;;;;;;;;;;;;;;;;;
2022/04/09 07:38:32;;;;;;;0.88;0.50;;;;;;;13.60;25.27;91053.00;5016004;28;20041;-88
2022/04/09 07:41:09;;;;;;;0.30;0.30;;;;;;;13.40;26.12;91017.97;4984442;28;20099;-90
2022/04/09 07:43:50;;;;;;;;;;;;;;;;;;;;;
2022/04/09 07:46:51;;;;;;;0.32;0.30;;;;;;;13.48;26.05;91027.53;4998529;28;20041;-88
2022/04/09 07:49:44;;;;;;;0.30;0.30;;;;;;;13.59;24.25;91040.16;5002778;28;20120;-89
2022/04/09 07:52:11;;;;;;;0.30;0.30;;;;;;;13.78;25.08;91016.59;4999085;28;20044;-87
2022/04/09 07:54:37;;;;;;;0.20;0.20;;;;;;;14.28;23.06;91062.44;5030404;28;20033;-87
2022/04/09 07:57:03;;;;;;;0.30;0.30;;;;;;;14.34;24.10;91076.84;5038067;28;20045;-87
2022/04/09 07:59:29;;;;;;;0.73;0.38;;;;;;;14.71;23.67;91066.00;5013085;28;20092;-87
2022/04/09 08:01:55;;;;;;;0.30;0.30;;;;;;;14.95;24.07;91086.06;5030394;28;20053;-88
2022/04/09 08:04:20;;;;;;;0.88;0.52;;;;;;;14.63;22.22;91051.13;5051277;28;20033;-88
2022/04/09 08:06:46;;;;;;;2.42;0.40;;;;;;;14.43;22.33;91078.53;4985510;28;20092;-88
2022/04/09 08:09:12;;;;;;;0.77;0.60;;;;;;;14.27;21.51;91060.13;4998029;28;20038;-87
2022/04/09 08:11:37;;;;;;;0.40;0.40;;;;;;;13.46;21.09;91086.78;4998243;28;20444;-87
2022/04/09 08:14:03;;;;;;;2.63;0.30;;;;;;;13.59;21.82;91083.00;5032452;28;20091;-87
2022/04/09 08:16:29;;;;;;;0.93;0.40;;;;;;;13.43;22.40;91069.84;5015105;28;20068;-87
2022/04/09 08:18:54;;;;;;;0.30;0.30;;;;;;;13.50;22.11;91098.94;4999265;28;20083;-86
2022/04/09 08:21:20;;;;;;;0.20;0.20;;;;;;;13.68;20.78;91082.84;5032910;28;20053;-88
2022/04/09 08:23:47;;;;;;;0.30;0.30;;;;;;;13.73;21.89;91100.97;5014507;28;20398;-87
2022/04/09 08:26:14;;;;;;;0.30;0.30;;;;;;;13.90;21.26;91121.69;4999080;28;20041;-86
2022/04/09 08:28:40;;;;;;;0.38;0.38;;;;;;;13.90;22.02;91137.47;5032548;28;20029;-87
2022/04/09 08:31:06;;;;;;;0.30;0.30;;;;;;;13.65;20.98;91125.59;5032098;28;20056;-86
2022/04/09 08:33:32;;;;;;;0.20;0.20;;;;;;;13.88;20.19;91118.66;5015623;28;20046;-87
2022/04/09 08:35:59;;;;;;;0.20;0.20;;;;;;;14.08;20.15;91121.38;5035242;28;20041;-87
2022/04/09 08:38:25;;;;;;;0.20;0.20;;;;;;;14.18;19.78;91115.56;5018503;28;20029;-87
2022/04/09 08:40:50;;;;;;;0.35;0.35;;;;;;;14.18;20.58;91130.59;4982246;28;20475;-86
2022/04/09 08:43:16;;;;;;;0.20;0.20;;;;;;;13.64;18.90;91137.97;5016111;28;20041;-86
2022/04/09 08:45:42;;;;;;;0.30;0.30;;;;;;;13.31;20.23;91114.59;5036026;28;20126;-87
2022/04/09 08:48:09;;;;;;;0.30;0.30;;;;;;;13.32;20.29;91124.00;5018574;28;20529;-88
2022/04/09 08:50:36;;;;;;;0.43;0.40;;;;;;;13.08;20.92;91130.06;5001340;28;20038;-89
2022/04/09 08:53:06;;;;;;;0.45;0.30;;;;;;;12.86;21.03;91134.75;4999293;28;20029;-88
2022/04/09 08:55:36;;;;;;;0.30;0.30;;;;;;;12.85;20.08;91093.81;5014023;28;20123;-89
2022/04/09 08:58:03;;;;;;;0.40;0.40;;;;;;;13.01;20.55;91119.38;5011973;28;20133;-90
2022/04/09 09:00:30;;;;;;;0.45;0.40;;;;;;;13.18;20.59;91128.84;5030125;28;20040;-89
2022/04/09 09:02:57;;;;;;;0.38;0.38;;;;;;;13.25;20.01;91087.00;5015780;28;20033;-88
2022/04/09 09:05:34;;;;;;;1.33;0.70;;;;;;;13.38;18.99;91114.78;5016907;28;20047;-90
2022/04/09 09:08:01;;;;;;;2.03;0.40;;;;;;;13.09;19.77;91116.59;5030538;28;20033;-89
2022/04/09 09:10:30;;;;;;;2.83;0.50;;;;;;;12.22;19.78;91057.53;4997326;28;20041;-89
2022/04/09 09:13:07;;;;;;;1.30;0.50;;;;;;;13.09;19.98;91134.25;5006853;28;20038;-89
2022/04/09 09:15:52;;;;;;;0.57;0.47;;;;;;;13.12;19.58;91138.81;5015963;28;20041;-89
2022/04/09 09:18:25;;;;;;;0.55;0.55;;;;;;;13.12;19.60;91157.97;4998572;28;20499;-89
2022/04/09 09:21:00;;;;;;;0.85;0.60;;;;;;;12.86;19.22;91166.25;5038686;28;20498;-91
2022/04/09 09:23:35;;;;;;;7.07;0.63;;;;;;;12.90;19.47;91140.09;4993795;28;20076;-88
2022/04/09 09:26:02;;;;;;;3.03;0.57;;;;;;;13.25;18.76;91187.59;5027554;28;20924;-90
2022/04/09 09:28:30;;;;;;;1.35;0.40;;;;;;;13.44;19.51;91181.78;5034286;28;20029;-89
2022/04/09 09:30:58;;;;;;;0.73;0.50;;;;;;;12.74;18.36;91189.13;5000704;28;20090;-88
2022/04/09 09:33:25;;;;;;;0.52;0.50;;;;;;;13.31;19.92;91222.34;5025426;28;20030;-89
2022/04/09 09:36:00;;;;;;;0.77;0.57;;;;;;;12.97;19.14;91197.31;5018033;28;20509;-89
2022/04/09 09:38:31;;;;;;;0.50;0.50;;;;;;;13.24;18.42;91198.44;4984546;28;20046;-89
2022/04/09 09:40:58;;;;;;;2.15;0.70;;;;;;;13.33;17.72;91209.63;5015996;28;20041;-88
2022/04/09 09:43:26;;;;;;;1.27;0.80;;;;;;;13.82;19.02;91238.34;4985118;28;20120;-88
2022/04/09 09:45:54;;;;;;;1.85;0.57;;;;;;;14.06;18.25;91231.44;4998689;28;20046;-91
2022/04/09 09:48:35;;;;;;;0.40;0.40;;;;;;;14.19;17.14;91243.44;5033273;28;20037;-89
2022/04/09 09:51:01;;;;;;;0.50;0.50;;;;;;;14.32;17.55;91247.53;4999350;28;20037;-92
2022/04/09 09:53:28;;;;;;;0.57;0.50;;;;;;;14.10;18.71;91240.22;5009047;28;20048;-89
2022/04/09 09:55:55;;;;;;;1.67;0.80;;;;;;;14.24;18.64;91253.72;5014353;28;20072;-88
2022/04/09 09:58:22;;;;;;;0.68;0.55;;;;;;;14.65;18.67;91270.16;5029382;28;20068;-90
2022/04/09 10:00:48;;;;;;;0.50;0.50;;;;;;;14.46;16.89;91257.66;5000390;28;20033;-90
2022/04/09 10:03:16;;;;;;;0.95;0.65;;;;;;;14.74;18.89;91264.72;5001183;28;20298;-90
2022/04/09 10:05:50;;;;;;;0.95;0.70;;;;;;;14.53;18.63;91244.66;5015946;28;20395;-91
2022/04/09 10:08:23;;;;;;;21.33;1.15;;;;;;;14.64;17.15;91278.41;4989996;28;20044;-89
2022/04/09 10:10:59;;;;;;;2.20;0.60;;;;;;;13.93;17.81;91204.44;5018525;28;20033;-90
2022/04/09 10:13:43;;;;;;;1.48;0.50;;;;;;;14.00;18.78;91246.72;5027506;28;20636;-90
2022/04/09 10:16:29;;;;;;;0.40;0.40;;;;;;;13.47;18.23;91223.16;5037666;28;20454;-90
2022/04/09 10:19:18;;;;;;;5.10;0.70;;;;;;;14.21;19.88;91251.75;5018092;28;20048;-92
2022/04/09 10:24:59;;;;;;;1.83;0.68;;;;;;;14.34;20.02;91245.34;4993468;28;20053;-91
2022/04/09 10:27:53;;;;;;;;;;;;;;;;;;;;;
2022/04/09 10:30:29;;;;;;;0.65;0.60;;;;;;;14.29;19.87;91213.97;5016054;28;20410;-89
2022/04/09 10:32:59;;;;;;;0.63;0.60;;;;;;;14.28;18.29;91230.88;5012030;28;20036;-88
2022/04/09 10:35:40;;;;;;;0.93;0.63;;;;;;;14.27;19.28;91239.88;5015373;28;20667;-89
2022/04/09 10:38:18;;;;;;;;;;;;;;;14.23;18.41;91296.94;5025945;28;20034;-89
2022/04/09 10:40:44;;;;;;;0.60;0.60;;;;;;;14.67;18.45;91307.44;4999684;28;19921;-89
2022/04/09 10:43:25;;;;;;;1.38;0.70;;;;;;;14.07;18.37;91286.38;5033915;28;20040;-89
2022/04/09 10:46:21;;;;;;;;;;;;;;;;;;;;;
2022/04/09 10:49:20;;;;;;;0.88;0.73;;;;;;;13.29;19.07;91248.94;5033906;28;21292;-89
2022/04/09 10:52:14;;;;;;;1.38;0.90;;;;;;;14.16;17.30;91254.63;5012695;28;20116;-89
2022/04/09 10:55:19;;;;;;;0.93;0.80;;;;;;;15.01;17.34;91305.22;5014786;28;20038;-90
2022/04/09 10:57:50;;;;;;;3.03;0.90;;;;;;;15.00;17.00;91240.47;5021961;28;20036;-89
2022/04/09 11:00:26;;;;;;;0.73;0.70;;;;;;;14.94;16.72;91291.91;5020350;28;20138;-89
2022/04/09 11:03:05;;;;;;;2.15;1.02;;;;;;;14.83;18.55;91227.66;4999150;28;20091;-90
2022/04/09 11:05:31;;;;;;;1.58;1.00;;;;;;;15.57;18.67;91283.09;4991127;28;20056;-90
2022/04/09 11:08:07;;;;;;;1.60;0.88;;;;;;;15.68;17.48;91262.97;4995072;28;20749;-89
2022/04/09 11:10:38;;;;;;;0.93;0.82;;;;;;;15.40;17.63;91257.88;5014965;28;20513;-90
2022/04/09 11:13:10;;;;;;;2.95;1.20;;;;;;;14.24;16.94;91280.03;5027515;28;20117;-89
2022/04/09 11:15:45;;;;;;;1.88;1.00;;;;;;;14.25;17.84;91242.09;5015198;28;20041;-88
2022/04/09 11:18:11;;;;;;;1.40;1.00;;;;;;;14.64;17.72;91250.19;4979489;28;20566;-89
2022/04/09 11:20:38;;;;;;;1.23;0.90;;;;;;;15.12;17.25;91245.63;5006066;28;20118;-88
2022/04/09 11:23:14;;;;;;;2.25;1.00;;;;;;;15.20;17.19;91220.94;5011150;28;20026;-90
2022/04/09 11:25:44;;;;;;;1.92;0.93;;;;;;;15.78;18.05;91280.94;5011640;28;20079;-88
2022/04/09 11:28:17;;;;;;;1.85;1.13;;;;;;;15.68;17.22;91254.31;5016853;28;20107;-90
2022/04/09 11:30:58;;;;;;;1.80;1.02;;;;;;;15.81;16.86;91317.16;4979143;28;20187;-89
2022/04/09 11:33:24;;;;;;;0.82;0.80;;;;;;;15.21;16.06;91269.16;5001190;28;20034;-89
2022/04/09 11:35:50;;;;;;;1.88;1.05;;;;;;;15.80;17.27;91288.47;4997723;28;20041;-90
2022/04/09 11:38:20;;;;;;;1.45;0.98;;;;;;;15.24;17.82;91259.78;4997437;28;20037;-89
2022/04/09 11:40:46;;;;;;;1.75;0.98;;;;;;;15.49;17.18;91266.38;5014796;28;20042;-89
2022/04/09 11:43:14;;;;;;;1.17;0.93;;;;;;;14.89;16.79;91279.00;4995852;28;20033;-90
2022/04/09 11:45:40;;;;;;;1.20;0.95;;;;;;;15.55;18.26;91311.69;5015876;28;20034;-89
2022/04/09 11:48:15;;;;;;;1.33;0.90;;;;;;;14.81;16.94;91329.97;4981718;28;20033;-90
2022/04/09 11:50:44;;;;;;;3.30;1.23;;;;;;;14.65;17.64;91266.75;4995081;28;20049;-89
2022/04/09 11:53:28;;;;;;;1.52;0.95;;;;;;;14.63;16.97;91277.63;5011291;28;20531;-90
2022/04/09 11:55:59;;;;;;;1.55;0.77;;;;;;;15.20;18.36;91352.75;5011384;28;20044;-90
2022/04/09 11:58:54;;;;;;;2.55;1.05;;;;;;;14.55;16.88;91341.78;5014699;28;20037;-89
2022/04/09 12:01:20;;;;;;;1.13;0.85;;;;;;;14.65;16.41;91330.72;4998920;28;20045;-89
2022/04/09 12:03:51;;;;;;;4.72;1.40;;;;;;;14.35;15.08;91288.97;4997991;28;20033;-90
2022/04/09 12:06:27;;;;;;;2.75;1.02;;;;;;;14.41;17.40;91328.97;4998948;28;20050;-90
2022/04/09 12:08:59;;;;;;;1.85;1.00;;;;;;;14.33;16.58;91295.66;5026892;28;20036;-90
2022/04/09 12:11:29;;;;;;;1.38;1.00;;;;;;;14.50;16.91;91299.84;5006235;28;20088;-89
2022/04/09 12:14:17;;;;;;;1.35;0.90;;;;;;;14.87;17.79;91318.09;5027983;28;20033;-90
2022/04/09 12:16:43;;;;;;;0.70;0.68;;;;;;;14.14;16.05;91283.16;5018645;28;20067;-89
2022/04/09 12:19:09;;;;;;;1.60;0.80;;;;;;;13.85;16.92;91316.59;5011104;28;20482;-90
2022/04/09 12:21:38;;;;;;;1.33;0.77;;;;;;;14.16;17.55;91309.88;5017803;28;20049;-89
2022/04/09 12:24:12;;;;;;;1.58;0.75;;;;;;;14.44;18.90;91319.66;5018729;28;20528;-90
2022/04/09 12:26:43;;;;;;;1.40;0.85;;;;;;;14.42;17.03;91298.91;5017689;28;20033;-90
2022/04/09 12:29:27;;;;;;;1.13;0.80;;;;;;;14.40;17.53;91284.56;5008913;28;20040;-89
2022/04/09 12:32:17;;;;;;;1.70;1.00;;;;;;;15.22;17.50;91365.59;5028624;28;20489;-91
2022/04/09 12:34:55;;;;;;;0.93;0.70;;;;;;;14.98;17.66;91319.09;5015241;28;20111;-91
2022/04/09 12:37:22;;;;;;;1.10;0.80;;;;;;;14.94;16.50;91307.72;4998301;28;20030;-90
2022/04/09 12:40:38;;;;;;;1.02;0.80;;;;;;;15.17;16.80;91321.78;5015440;28;20103;-90
2022/04/09 12:43:34;;;;;;;1.25;0.88;;;;;;;14.64;16.63;91366.09;5006584;28;20168;-90
2022/04/09 12:46:18;;;;;;;0.77;0.77;;;;;;;13.93;16.20;91297.25;4998050;28;20033;-90
2022/04/09 12:48:48;;;;;;;0.70;0.60;;;;;;;14.31;17.97;91317.06;4999521;28;20483;-90
2022/04/09 12:51:32;;;;;;;1.52;0.90;;;;;;;14.14;16.54;91299.72;4999250;28;20037;-90
2022/04/09 12:54:02;;;;;;;1.58;0.93;;;;;;;14.78;16.24;91326.16;4997316;28;20033;-92
2022/04/09 12:56:52;;;;;;;;;;;;;;;;;;;;;
2022/04/09 12:59:29;;;;;;;0.93;0.70;;;;;;;15.05;16.88;91340.34;5023666;28;20487;-90
2022/04/09 13:01:58;;;;;;;2.83;0.80;;;;;;;12.96;16.69;91217.56;5031228;28;20060;-90
2022/04/09 13:05:26;;;;;;;1.50;1.00;;;;;;;13.56;20.07;91367.63;5023971;28;20034;-91
2022/04/09 13:08:28;;;;;;;0.80;0.77;;;;;;;14.18;18.36;91327.97;5025935;28;20055;-90
2022/04/09 13:11:21;;;;;;;1.75;0.77;;;;;;;14.10;17.14;91319.16;5022381;28;20037;-89
2022/04/09 13:14:01;;;;;;;0.70;0.70;;;;;;;13.64;17.30;91293.09;4995449;28;20490;-89
2022/04/09 13:16:56;;;;;;;;;;;;;;;;;;;;;
2022/04/09 13:19:45;;;;;;;;;;;;;;;;;;;;;
2022/04/09 13:22:46;;;;;;;1.58;0.93;;;;;;;14.04;17.69;91302.81;5024056;28;20410;-90
2022/04/09 13:25:32;;;;;;;1.88;0.90;;;;;;;14.00;18.71;91309.84;5012810;28;20056;-91
2022/04/09 13:28:32;;;;;;;1.40;1.00;;;;;;;14.14;18.10;91298.97;5000231;28;20408;-89
2022/04/09 13:31:26;;;;;;;;;;;;;;;;;;;;;
2022/04/09 13:34:18;;;;;;;1.95;1.00;;;;;;;13.37;16.52;91322.72;5034916;28;20041;-90
2022/04/09 13:37:20;;;;;;;;;;;;;;;;;;;;;
2022/04/09 13:43:01;;;;;;;1.42;1.00;;;;;;;13.83;15.77;91305.66;5037904;28;20041;-90
2022/04/09 13:49:45;;;;;;;1.25;0.93;;;;;;;14.01;17.23;91379.81;5025850;28;20045;-89
2022/04/09 13:52:28;;;;;;;0.93;0.80;;;;;;;14.30;16.59;91393.75;5013637;28;20049;-89
2022/04/09 13:55:29;;;;;;;1.20;0.70;;;;;;;13.24;16.81;91333.25;4999929;28;20041;-90
2022/04/09 13:58:19;;;;;;;1.05;0.80;;;;;;;13.76;16.28;91381.72;5014469;28;20060;-88
2022/04/09 14:01:27;;;;;;;0.80;0.80;;;;;;;13.99;16.88;91352.28;4989634;28;20103;-89
2022/04/09 14:04:05;;;;;;;;;;;;;;;;;;;;;
2022/04/09 14:07:07;;;;;;;;;;;;;;;;;;;;;
2022/04/09 14:09:45;;;;;;;1.23;0.88;;;;;;;12.68;16.07;91348.75;5030955;28;20056;-88
2022/04/09 14:13:04;;;;;;;2.55;0.98;;;;;;;12.36;16.09;91384.44;4995540;28;20065;-89
2022/04/09 14:15:39;;;;;;;1.65;0.90;;;;;;;12.64;16.42;91367.00;5010936;28;20073;-89
2022/04/09 14:18:09;;;;;;;1.50;0.90;;;;;;;12.00;15.20;91354.34;4998454;28;20034;-90
2022/04/09 14:20:53;;;;;;;1.63;0.98;;;;;;;12.29;15.05;91375.25;5037873;28;20049;-91
2022/04/09 14:24:15;;;;;;;2.63;1.10;;;;;;;12.67;17.39;91368.22;5007845;28;20042;-88
2022/04/09 14:29:52;;;;;;;2.40;1.58;;;;;;;13.16;17.36;91364.88;5038974;28;20124;-88
2022/04/09 14:32:43;;;;;;;1.05;0.80;;;;;;;13.18;15.48;91433.63;5021665;28;20032;-89
2022/04/09 14:35:43;;;;;;;1.77;1.00;;;;;;;12.58;17.34;91376.19;5016380;28;20094;-89
2022/04/09 14:38:22;;;;;;;0.77;0.65;;;;;;;12.55;14.66;91368.97;5009948;28;20065;-88
2022/04/09 14:41:10;;;;;;;3.75;1.05;;;;;;;12.14;16.61;91396.06;5016610;28;20045;-89
2022/04/09 14:43:52;;;;;;;3.33;1.05;;;;;;;12.85;15.77;91390.56;5002186;28;20052;-89
2022/04/09 14:46:33;;;;;;;;;;;;;;;;;;;;;
2022/04/09 14:49:31;;;;;;;2.67;0.88;;;;;;;12.06;14.60;91389.78;5023670;28;20109;-88
2022/04/09 14:52:12;;;;;;;1.17;0.88;;;;;;;12.31;17.86;91392.50;5045289;28;20038;-89
2022/04/09 14:55:33;;;;;;;;;;;;;;;;;;;;;
2022/04/09 14:58:43;;;;;;;3.22;1.35;;;;;;;12.66;16.04;91463.84;5031670;28;20045;-89
2022/04/09 15:01:35;;;;;;;1.70;1.08;;;;;;;12.15;14.17;91410.69;5016954;28;20033;-88
2022/04/09 15:07:09;;;;;;;;;;;;;;;;;;;;;
2022/04/09 15:09:49;;;;;;;;;;;;;;;11.75;15.30;91490.53;5039140;28;20037;-89
2022/04/09 15:12:41;;;;;;;1.92;1.00;;;;;;;12.20;16.29;91474.22;5068531;28;19924;-91
2022/04/09 15:18:29;;;;;;;;;;;;;;;;;;;;;
2022/04/09 15:21:40;;;;;;;3.55;1.27;;;;;;;12.71;15.90;91453.88;5050056;28;20049;-90
2022/04/09 15:24:31;;;;;;;4.55;0.98;;;;;;;12.93;14.30;91486.13;5025108;28;20426;-90
2022/04/09 15:27:19;;;;;;;1.65;1.10;;;;;;;11.90;16.08;91489.25;4991304;28;20483;-88
2022/04/09 15:30:13;;;;;;;1.52;0.90;;;;;;;12.06;15.13;91455.38;5016380;28;20096;-91
2022/04/09 15:33:15;;;;;;;1.67;1.10;;;;;;;11.94;15.61;91473.66;5010078;28;20042;-90
2022/04/09 15:36:10;;;;;;;3.35;1.10;;;;;;;11.87;15.58;91489.88;5024931;28;20047;-88
2022/04/09 15:38:56;;;;;;;1.15;0.88;;;;;;;11.27;15.49;91470.72;5037217;28;20234;-90
2022/04/09 15:42:14;;;;;;;15.02;4.65;;;;;;;11.71;16.13;91552.56;5051144;28;20490;-90
2022/04/09 15:45:06;;;;;;;;;;;;;;;;;;;;;